sensor_id;sensor_type;location;lat;lon;timestamp;P1;durP1;ratioP1;P2;durP2;ratioP2
55784;SDS011;41709;52.536;5.688;2023-03-23T00:00:50;6.80;;;4.00;;
55784;SDS011;41709;52.536;5.688;2023-03-23T00:03:16;11.23;;;4.80;;
55784;SDS011;41709;52.536;5.688;2023-03-23T00:05:42;7.85;;;3.65;;
55784;SDS011;41709;52.536;5.688;2023-03-23T00:08:14;6.75;;;4.05;;
55784;SDS011;41709;52.536;5.688;2023-03-23T00:10:47;6.43;;;3.70;;
55784;SDS011;41709;52.536;5.688;2023-03-23T00:13:22;6.50;;;3.75;;
55784;SDS011;41709;52.536;5.688;2023-03-23T00:15:48;9.35;;;4.15;;
55784;SDS011;41709;52.536;5.688;2023-03-23T00:18:14;14.23;;;6.13;;
55784;SDS011;41709;52.536;5.688;2023-03-23T00:20:47;13.55;;;3.97;;
55784;SDS011;41709;52.536;5.688;2023-03-23T00:23:21;5.40;;;3.60;;
55784;SDS011;41709;52.536;5.688;2023-03-23T00:25:49;7.90;;;3.70;;
55784;SDS011;41709;52.536;5.688;2023-03-23T00:28:22;7.00;;;3.50;;
55784;SDS011;41709;52.536;5.688;2023-03-23T00:30:53;6.97;;;3.58;;
55784;SDS011;41709;52.536;5.688;2023-03-23T00:33:21;6.63;;;3.80;;
55784;SDS011;41709;52.536;5.688;2023-03-23T00:35:48;6.30;;;3.88;;
55784;SDS011;41709;52.536;5.688;2023-03-23T00:38:17;6.65;;;3.35;;
55784;SDS011;41709;52.536;5.688;2023-03-23T00:40:44;7.45;;;3.90;;
55784;SDS011;41709;52.536;5.688;2023-03-23T00:43:12;7.53;;;3.72;;
55784;SDS011;41709;52.536;5.688;2023-03-23T00:45:42;5.88;;;3.50;;
55784;SDS011;41709;52.536;5.688;2023-03-23T00:48:20;5.22;;;3.42;;
55784;SDS011;41709;52.536;5.688;2023-03-23T00:50:47;6.13;;;3.70;;
55784;SDS011;41709;52.536;5.688;2023-03-23T00:53:13;4.95;;;3.03;;
55784;SDS011;41709;52.536;5.688;2023-03-23T00:55:43;5.35;;;3.47;;
55784;SDS011;41709;52.536;5.688;2023-03-23T00:58:11;9.88;;;3.78;;
55784;SDS011;41709;52.536;5.688;2023-03-23T01:00:37;10.40;;;3.50;;
55784;SDS011;41709;52.536;5.688;2023-03-23T01:03:03;7.30;;;3.63;;
55784;SDS011;41709;52.536;5.688;2023-03-23T01:05:29;7.53;;;3.60;;
55784;SDS011;41709;52.536;5.688;2023-03-23T01:08:03;6.82;;;3.20;;
55784;SDS011;41709;52.536;5.688;2023-03-23T01:10:29;6.38;;;3.10;;
55784;SDS011;41709;52.536;5.688;2023-03-23T01:12:58;8.63;;;3.20;;
55784;SDS011;41709;52.536;5.688;2023-03-23T01:15:25;9.40;;;3.70;;
55784;SDS011;41709;52.536;5.688;2023-03-23T01:17:52;8.38;;;3.30;;
55784;SDS011;41709;52.536;5.688;2023-03-23T01:20:18;6.22;;;3.42;;
55784;SDS011;41709;52.536;5.688;2023-03-23T01:22:43;5.95;;;3.28;;
55784;SDS011;41709;52.536;5.688;2023-03-23T01:25:09;9.07;;;3.47;;
55784;SDS011;41709;52.536;5.688;2023-03-23T01:27:36;5.88;;;3.10;;
55784;SDS011;41709;52.536;5.688;2023-03-23T01:30:03;8.35;;;3.78;;
55784;SDS011;41709;52.536;5.688;2023-03-23T01:32:29;7.72;;;3.15;;
55784;SDS011;41709;52.536;5.688;2023-03-23T01:34:55;7.85;;;3.00;;
55784;SDS011;41709;52.536;5.688;2023-03-23T01:37:21;5.88;;;3.00;;
55784;SDS011;41709;52.536;5.688;2023-03-23T01:39:51;9.18;;;3.47;;
55784;SDS011;41709;52.536;5.688;2023-03-23T01:42:18;6.10;;;3.15;;
55784;SDS011;41709;52.536;5.688;2023-03-23T01:47:11;5.70;;;2.83;;
55784;SDS011;41709;52.536;5.688;2023-03-23T01:49:38;4.88;;;2.65;;
55784;SDS011;41709;52.536;5.688;2023-03-23T01:52:08;6.30;;;2.67;;
55784;SDS011;41709;52.536;5.688;2023-03-23T01:54:42;2.67;;;2.47;;
55784;SDS011;41709;52.536;5.688;2023-03-23T01:57:11;4.15;;;2.40;;
55784;SDS011;41709;52.536;5.688;2023-03-23T01:59:40;6.18;;;2.47;;
55784;SDS011;41709;52.536;5.688;2023-03-23T02:02:10;7.07;;;2.83;;
55784;SDS011;41709;52.536;5.688;2023-03-23T02:04:36;6.40;;;2.60;;
55784;SDS011;41709;52.536;5.688;2023-03-23T02:07:02;4.10;;;2.53;;
55784;SDS011;41709;52.536;5.688;2023-03-23T02:09:28;5.85;;;2.40;;
55784;SDS011;41709;52.536;5.688;2023-03-23T02:11:54;8.77;;;2.67;;
55784;SDS011;41709;52.536;5.688;2023-03-23T02:14:21;6.25;;;2.53;;
55784;SDS011;41709;52.536;5.688;2023-03-23T02:27:49;6.88;;;2.72;;
55784;SDS011;41709;52.536;5.688;2023-03-23T02:30:44;6.65;;;2.75;;
55784;SDS011;41709;52.536;5.688;2023-03-23T02:33:28;6.53;;;2.65;;
55784;SDS011;41709;52.536;5.688;2023-03-23T02:36:05;4.63;;;2.22;;
55784;SDS011;41709;52.536;5.688;2023-03-23T02:39:27;7.43;;;2.50;;
55784;SDS011;41709;52.536;5.688;2023-03-23T02:44:23;6.82;;;2.25;;
55784;SDS011;41709;52.536;5.688;2023-03-23T02:46:54;5.13;;;2.20;;
55784;SDS011;41709;52.536;5.688;2023-03-23T02:49:21;6.22;;;2.35;;
55784;SDS011;41709;52.536;5.688;2023-03-23T02:51:49;7.75;;;2.90;;
55784;SDS011;41709;52.536;5.688;2023-03-23T02:54:17;4.13;;;2.30;;
55784;SDS011;41709;52.536;5.688;2023-03-23T02:56:45;4.20;;;2.10;;
55784;SDS011;41709;52.536;5.688;2023-03-23T02:59:12;6.93;;;2.83;;
55784;SDS011;41709;52.536;5.688;2023-03-23T03:04:03;3.88;;;2.20;;
55784;SDS011;41709;52.536;5.688;2023-03-23T03:09:41;6.15;;;2.28;;
55784;SDS011;41709;52.536;5.688;2023-03-23T03:12:15;3.30;;;1.92;;
55784;SDS011;41709;52.536;5.688;2023-03-23T03:14:53;3.55;;;2.03;;
55784;SDS011;41709;52.536;5.688;2023-03-23T03:17:30;6.68;;;2.10;;
55784;SDS011;41709;52.536;5.688;2023-03-23T03:20:01;6.10;;;2.35;;
55784;SDS011;41709;52.536;5.688;2023-03-23T03:22:35;3.80;;;2.00;;
55784;SDS011;41709;52.536;5.688;2023-03-23T03:25:07;3.78;;;2.50;;
55784;SDS011;41709;52.536;5.688;2023-03-23T03:27:33;3.38;;;2.00;;
55784;SDS011;41709;52.536;5.688;2023-03-23T03:29:59;5.55;;;2.35;;
55784;SDS011;41709;52.536;5.688;2023-03-23T03:32:31;5.15;;;2.17;;
55784;SDS011;41709;52.536;5.688;2023-03-23T03:35:03;4.78;;;1.80;;
55784;SDS011;41709;52.536;5.688;2023-03-23T03:37:34;3.83;;;1.98;;
55784;SDS011;41709;52.536;5.688;2023-03-23T03:40:02;3.47;;;1.92;;
55784;SDS011;41709;52.536;5.688;2023-03-23T03:42:35;3.38;;;2.17;;
55784;SDS011;41709;52.536;5.688;2023-03-23T03:45:02;6.25;;;2.25;;
55784;SDS011;41709;52.536;5.688;2023-03-23T03:47:27;5.40;;;1.83;;
55784;SDS011;41709;52.536;5.688;2023-03-23T03:49:53;2.47;;;1.85;;
55784;SDS011;41709;52.536;5.688;2023-03-23T03:52:18;5.72;;;1.98;;
55784;SDS011;41709;52.536;5.688;2023-03-23T03:54:44;5.18;;;2.28;;
55784;SDS011;41709;52.536;5.688;2023-03-23T03:57:10;4.43;;;2.22;;
55784;SDS011;41709;52.536;5.688;2023-03-23T03:59:36;6.97;;;2.25;;
55784;SDS011;41709;52.536;5.688;2023-03-23T04:02:02;7.03;;;1.92;;
55784;SDS011;41709;52.536;5.688;2023-03-23T04:04:28;7.15;;;2.03;;
55784;SDS011;41709;52.536;5.688;2023-03-23T04:06:54;7.10;;;1.70;;
55784;SDS011;41709;52.536;5.688;2023-03-23T04:09:20;6.30;;;1.60;;
55784;SDS011;41709;52.536;5.688;2023-03-23T04:11:46;4.82;;;1.73;;
55784;SDS011;41709;52.536;5.688;2023-03-23T04:14:12;6.15;;;2.40;;
55784;SDS011;41709;52.536;5.688;2023-03-23T04:16:37;8.55;;;1.45;;
55784;SDS011;41709;52.536;5.688;2023-03-23T04:19:03;3.45;;;1.83;;
55784;SDS011;41709;52.536;5.688;2023-03-23T04:21:29;7.40;;;1.90;;
55784;SDS011;41709;52.536;5.688;2023-03-23T04:23:57;7.40;;;1.75;;
55784;SDS011;41709;52.536;5.688;2023-03-23T04:26:24;7.63;;;2.22;;
55784;SDS011;41709;52.536;5.688;2023-03-23T04:28:55;9.02;;;2.58;;
55784;SDS011;41709;52.536;5.688;2023-03-23T04:31:22;8.15;;;2.13;;
55784;SDS011;41709;52.536;5.688;2023-03-23T04:33:50;12.77;;;2.22;;
55784;SDS011;41709;52.536;5.688;2023-03-23T04:36:19;9.65;;;2.38;;
55784;SDS011;41709;52.536;5.688;2023-03-23T04:38:47;8.40;;;1.70;;
55784;SDS011;41709;52.536;5.688;2023-03-23T04:41:15;14.38;;;3.28;;
55784;SDS011;41709;52.536;5.688;2023-03-23T04:43:40;7.55;;;2.30;;
55784;SDS011;41709;52.536;5.688;2023-03-23T04:46:09;7.43;;;2.28;;
55784;SDS011;41709;52.536;5.688;2023-03-23T04:48:35;8.80;;;2.80;;
55784;SDS011;41709;52.536;5.688;2023-03-23T04:51:01;3.38;;;1.33;;
55784;SDS011;41709;52.536;5.688;2023-03-23T04:53:29;5.18;;;1.70;;
55784;SDS011;41709;52.536;5.688;2023-03-23T04:55:55;4.47;;;1.55;;
55784;SDS011;41709;52.536;5.688;2023-03-23T04:58:21;6.90;;;2.05;;
55784;SDS011;41709;52.536;5.688;2023-03-23T05:00:48;4.32;;;1.58;;
55784;SDS011;41709;52.536;5.688;2023-03-23T05:03:17;4.32;;;1.60;;
55784;SDS011;41709;52.536;5.688;2023-03-23T05:05:43;5.03;;;2.05;;
55784;SDS011;41709;52.536;5.688;2023-03-23T05:08:12;9.35;;;2.80;;
55784;SDS011;41709;52.536;5.688;2023-03-23T05:10:38;6.50;;;2.08;;
55784;SDS011;41709;52.536;5.688;2023-03-23T05:13:04;4.90;;;1.88;;
55784;SDS011;41709;52.536;5.688;2023-03-23T05:15:29;5.63;;;1.83;;
55784;SDS011;41709;52.536;5.688;2023-03-23T05:17:55;6.72;;;2.05;;
55784;SDS011;41709;52.536;5.688;2023-03-23T05:20:21;8.02;;;2.50;;
55784;SDS011;41709;52.536;5.688;2023-03-23T05:22:47;7.28;;;1.80;;
55784;SDS011;41709;52.536;5.688;2023-03-23T05:25:14;17.20;;;3.55;;
55784;SDS011;41709;52.536;5.688;2023-03-23T05:27:43;6.85;;;2.45;;
55784;SDS011;41709;52.536;5.688;2023-03-23T05:30:14;7.15;;;2.13;;
55784;SDS011;41709;52.536;5.688;2023-03-23T05:32:43;10.70;;;2.65;;
55784;SDS011;41709;52.536;5.688;2023-03-23T05:35:10;9.05;;;2.28;;
55784;SDS011;41709;52.536;5.688;2023-03-23T05:37:36;9.48;;;2.20;;
55784;SDS011;41709;52.536;5.688;2023-03-23T05:40:03;10.25;;;2.65;;
55784;SDS011;41709;52.536;5.688;2023-03-23T05:42:33;10.05;;;2.63;;
55784;SDS011;41709;52.536;5.688;2023-03-23T05:44:59;15.45;;;3.63;;
55784;SDS011;41709;52.536;5.688;2023-03-23T05:47:26;16.00;;;3.25;;
55784;SDS011;41709;52.536;5.688;2023-03-23T05:49:52;11.23;;;3.17;;
55784;SDS011;41709;52.536;5.688;2023-03-23T05:52:18;10.02;;;2.75;;
55784;SDS011;41709;52.536;5.688;2023-03-23T05:54:45;11.68;;;2.05;;
55784;SDS011;41709;52.536;5.688;2023-03-23T05:57:11;13.18;;;3.03;;
55784;SDS011;41709;52.536;5.688;2023-03-23T05:59:37;10.73;;;2.85;;
55784;SDS011;41709;52.536;5.688;2023-03-23T06:02:03;12.35;;;3.78;;
55784;SDS011;41709;52.536;5.688;2023-03-23T06:04:30;18.27;;;3.53;;
55784;SDS011;41709;52.536;5.688;2023-03-23T06:06:58;6.67;;;2.30;;
55784;SDS011;41709;52.536;5.688;2023-03-23T06:09:25;8.95;;;2.17;;
55784;SDS011;41709;52.536;5.688;2023-03-23T06:11:51;18.58;;;3.65;;
55784;SDS011;41709;52.536;5.688;2023-03-23T06:14:17;11.48;;;3.42;;
55784;SDS011;41709;52.536;5.688;2023-03-23T06:16:43;9.15;;;2.30;;
55784;SDS011;41709;52.536;5.688;2023-03-23T06:19:08;13.07;;;2.90;;
55784;SDS011;41709;52.536;5.688;2023-03-23T06:21:34;7.97;;;2.00;;
55784;SDS011;41709;52.536;5.688;2023-03-23T06:23:59;7.85;;;2.15;;
55784;SDS011;41709;52.536;5.688;2023-03-23T06:26:27;12.25;;;3.35;;
55784;SDS011;41709;52.536;5.688;2023-03-23T06:28:56;13.25;;;2.00;;
55784;SDS011;41709;52.536;5.688;2023-03-23T06:31:22;16.10;;;2.17;;
55784;SDS011;41709;52.536;5.688;2023-03-23T06:33:49;10.52;;;2.55;;
55784;SDS011;41709;52.536;5.688;2023-03-23T06:36:16;7.82;;;2.38;;
55784;SDS011;41709;52.536;5.688;2023-03-23T06:38:42;12.90;;;2.03;;
55784;SDS011;41709;52.536;5.688;2023-03-23T06:41:08;8.98;;;2.00;;
55784;SDS011;41709;52.536;5.688;2023-03-23T06:43:33;13.02;;;1.95;;
55784;SDS011;41709;52.536;5.688;2023-03-23T06:46:02;15.27;;;3.28;;
55784;SDS011;41709;52.536;5.688;2023-03-23T06:48:28;13.20;;;2.33;;
55784;SDS011;41709;52.536;5.688;2023-03-23T06:50:54;13.05;;;3.08;;
55784;SDS011;41709;52.536;5.688;2023-03-23T06:53:20;10.88;;;2.35;;
55784;SDS011;41709;52.536;5.688;2023-03-23T06:55:46;9.25;;;1.95;;
55784;SDS011;41709;52.536;5.688;2023-03-23T06:58:11;10.85;;;2.35;;
55784;SDS011;41709;52.536;5.688;2023-03-23T07:00:37;11.25;;;2.10;;
55784;SDS011;41709;52.536;5.688;2023-03-23T07:03:03;14.70;;;2.22;;
55784;SDS011;41709;52.536;5.688;2023-03-23T07:05:29;11.52;;;2.55;;
55784;SDS011;41709;52.536;5.688;2023-03-23T07:07:55;14.23;;;2.72;;
55784;SDS011;41709;52.536;5.688;2023-03-23T07:10:20;11.85;;;2.47;;
55784;SDS011;41709;52.536;5.688;2023-03-23T07:12:46;16.67;;;2.38;;
55784;SDS011;41709;52.536;5.688;2023-03-23T07:15:12;20.73;;;3.25;;
55784;SDS011;41709;52.536;5.688;2023-03-23T07:17:38;20.15;;;2.88;;
55784;SDS011;41709;52.536;5.688;2023-03-23T07:20:05;16.02;;;2.72;;
55784;SDS011;41709;52.536;5.688;2023-03-23T07:22:31;9.75;;;2.55;;
55784;SDS011;41709;52.536;5.688;2023-03-23T07:24:57;11.88;;;2.47;;
55784;SDS011;41709;52.536;5.688;2023-03-23T07:27:23;14.90;;;3.25;;
55784;SDS011;41709;52.536;5.688;2023-03-23T07:29:50;15.65;;;3.15;;
55784;SDS011;41709;52.536;5.688;2023-03-23T07:32:16;15.00;;;2.58;;
55784;SDS011;41709;52.536;5.688;2023-03-23T07:34:42;16.65;;;3.65;;
55784;SDS011;41709;52.536;5.688;2023-03-23T07:37:07;12.40;;;2.60;;
55784;SDS011;41709;52.536;5.688;2023-03-23T07:39:33;15.52;;;3.10;;
55784;SDS011;41709;52.536;5.688;2023-03-23T07:41:59;13.88;;;3.50;;
55784;SDS011;41709;52.536;5.688;2023-03-23T07:44:25;21.08;;;3.35;;
55784;SDS011;41709;52.536;5.688;2023-03-23T07:46:51;13.65;;;2.78;;
55784;SDS011;41709;52.536;5.688;2023-03-23T07:49:17;16.52;;;3.25;;
55784;SDS011;41709;52.536;5.688;2023-03-23T07:51:43;17.58;;;2.88;;
55784;SDS011;41709;52.536;5.688;2023-03-23T07:54:10;20.88;;;3.10;;
55784;SDS011;41709;52.536;5.688;2023-03-23T07:56:36;11.77;;;2.63;;
55784;SDS011;41709;52.536;5.688;2023-03-23T07:59:04;19.33;;;2.95;;
55784;SDS011;41709;52.536;5.688;2023-03-23T08:01:30;17.60;;;3.25;;
55784;SDS011;41709;52.536;5.688;2023-03-23T08:03:57;14.25;;;3.28;;
55784;SDS011;41709;52.536;5.688;2023-03-23T08:06:23;25.15;;;4.40;;
55784;SDS011;41709;52.536;5.688;2023-03-23T08:08:49;17.92;;;2.60;;
55784;SDS011;41709;52.536;5.688;2023-03-23T08:11:15;22.20;;;3.58;;
55784;SDS011;41709;52.536;5.688;2023-03-23T08:13:42;19.13;;;3.67;;
55784;SDS011;41709;52.536;5.688;2023-03-23T08:16:08;22.38;;;4.75;;
55784;SDS011;41709;52.536;5.688;2023-03-23T08:18:34;17.50;;;2.75;;
55784;SDS011;41709;52.536;5.688;2023-03-23T08:21:01;21.27;;;2.75;;
55784;SDS011;41709;52.536;5.688;2023-03-23T08:23:29;26.52;;;4.57;;
55784;SDS011;41709;52.536;5.688;2023-03-23T08:25:55;14.75;;;2.67;;
55784;SDS011;41709;52.536;5.688;2023-03-23T08:28:21;14.50;;;2.78;;
55784;SDS011;41709;52.536;5.688;2023-03-23T08:30:47;18.15;;;3.53;;
55784;SDS011;41709;52.536;5.688;2023-03-23T08:33:13;10.90;;;2.22;;
55784;SDS011;41709;52.536;5.688;2023-03-23T08:35:39;13.55;;;3.10;;
55784;SDS011;41709;52.536;5.688;2023-03-23T08:38:05;12.25;;;2.70;;
55784;SDS011;41709;52.536;5.688;2023-03-23T08:40:30;15.50;;;3.70;;
55784;SDS011;41709;52.536;5.688;2023-03-23T08:42:57;17.33;;;2.65;;
55784;SDS011;41709;52.536;5.688;2023-03-23T08:45:24;16.40;;;3.38;;
55784;SDS011;41709;52.536;5.688;2023-03-23T08:47:51;14.90;;;2.70;;
55784;SDS011;41709;52.536;5.688;2023-03-23T08:50:21;8.60;;;2.03;;
55784;SDS011;41709;52.536;5.688;2023-03-23T08:52:51;14.73;;;2.80;;
55784;SDS011;41709;52.536;5.688;2023-03-23T08:55:18;11.52;;;2.22;;
55784;SDS011;41709;52.536;5.688;2023-03-23T08:57:44;14.55;;;3.88;;
55784;SDS011;41709;52.536;5.688;2023-03-23T09:00:12;16.75;;;2.80;;
55784;SDS011;41709;52.536;5.688;2023-03-23T09:02:43;14.82;;;2.83;;
55784;SDS011;41709;52.536;5.688;2023-03-23T09:07:39;13.52;;;3.25;;
55784;SDS011;41709;52.536;5.688;2023-03-23T09:10:05;13.73;;;2.53;;
55784;SDS011;41709;52.536;5.688;2023-03-23T09:12:31;12.30;;;3.00;;
55784;SDS011;41709;52.536;5.688;2023-03-23T09:14:57;12.00;;;2.63;;
55784;SDS011;41709;52.536;5.688;2023-03-23T09:17:23;13.10;;;2.47;;
55784;SDS011;41709;52.536;5.688;2023-03-23T09:19:48;16.23;;;2.90;;
55784;SDS011;41709;52.536;5.688;2023-03-23T09:22:14;8.20;;;2.45;;
55784;SDS011;41709;52.536;5.688;2023-03-23T09:24:44;12.18;;;2.88;;
55784;SDS011;41709;52.536;5.688;2023-03-23T09:27:11;11.65;;;2.45;;
55784;SDS011;41709;52.536;5.688;2023-03-23T09:29:36;12.48;;;2.25;;
55784;SDS011;41709;52.536;5.688;2023-03-23T09:32:02;12.65;;;2.55;;
55784;SDS011;41709;52.536;5.688;2023-03-23T09:34:27;8.82;;;2.28;;
55784;SDS011;41709;52.536;5.688;2023-03-23T09:36:54;8.35;;;1.90;;
55784;SDS011;41709;52.536;5.688;2023-03-23T09:39:19;12.55;;;1.92;;
55784;SDS011;41709;52.536;5.688;2023-03-23T09:42:07;16.23;;;3.92;;
55784;SDS011;41709;52.536;5.688;2023-03-23T09:45:05;7.03;;;1.85;;
55784;SDS011;41709;52.536;5.688;2023-03-23T09:50:50;10.38;;;1.90;;
55784;SDS011;41709;52.536;5.688;2023-03-23T09:53:21;12.88;;;2.53;;
55784;SDS011;41709;52.536;5.688;2023-03-23T09:55:51;11.55;;;2.72;;
55784;SDS011;41709;52.536;5.688;2023-03-23T09:58:29;12.20;;;2.70;;
55784;SDS011;41709;52.536;5.688;2023-03-23T10:01:02;8.63;;;1.92;;
55784;SDS011;41709;52.536;5.688;2023-03-23T10:03:38;10.30;;;2.20;;
55784;SDS011;41709;52.536;5.688;2023-03-23T10:06:07;10.55;;;1.73;;
55784;SDS011;41709;52.536;5.688;2023-03-23T10:08:36;9.05;;;2.15;;
55784;SDS011;41709;52.536;5.688;2023-03-23T10:11:22;11.85;;;2.17;;
55784;SDS011;41709;52.536;5.688;2023-03-23T10:17:26;7.65;;;2.00;;
55784;SDS011;41709;52.536;5.688;2023-03-23T10:19:36;13.63;;;3.60;;
55784;SDS011;41709;52.536;5.688;2023-03-23T10:22:11;15.30;;;2.53;;
55784;SDS011;41709;52.536;5.688;2023-03-23T10:27:38;11.45;;;2.10;;
55784;SDS011;41709;52.536;5.688;2023-03-23T10:32:53;15.65;;;3.40;;
55784;SDS011;41709;52.536;5.688;2023-03-23T10:35:24;11.43;;;2.95;;
55784;SDS011;41709;52.536;5.688;2023-03-23T10:37:56;11.88;;;2.45;;
55784;SDS011;41709;52.536;5.688;2023-03-23T10:40:27;9.43;;;2.20;;
55784;SDS011;41709;52.536;5.688;2023-03-23T10:42:54;12.60;;;3.13;;
55784;SDS011;41709;52.536;5.688;2023-03-23T10:45:22;10.85;;;2.30;;
55784;SDS011;41709;52.536;5.688;2023-03-23T10:48:07;12.20;;;2.10;;
55784;SDS011;41709;52.536;5.688;2023-03-23T10:50:38;8.25;;;2.17;;
55784;SDS011;41709;52.536;5.688;2023-03-23T10:53:15;11.45;;;1.98;;
55784;SDS011;41709;52.536;5.688;2023-03-23T10:55:43;16.13;;;2.10;;
55784;SDS011;41709;52.536;5.688;2023-03-23T10:58:11;10.77;;;2.58;;
55784;SDS011;41709;52.536;5.688;2023-03-23T11:00:47;18.75;;;2.38;;
55784;SDS011;41709;52.536;5.688;2023-03-23T11:05:48;14.05;;;3.38;;
55784;SDS011;41709;52.536;5.688;2023-03-23T11:08:23;16.58;;;3.58;;
55784;SDS011;41709;52.536;5.688;2023-03-23T11:10:52;15.77;;;3.80;;
55784;SDS011;41709;52.536;5.688;2023-03-23T11:13:26;11.82;;;2.08;;
55784;SDS011;41709;52.536;5.688;2023-03-23T11:15:56;7.55;;;1.90;;
55784;SDS011;41709;52.536;5.688;2023-03-23T11:18:25;14.02;;;2.08;;
55784;SDS011;41709;52.536;5.688;2023-03-23T11:21:11;15.25;;;2.75;;
55784;SDS011;41709;52.536;5.688;2023-03-23T11:23:42;7.57;;;2.03;;
55784;SDS011;41709;52.536;5.688;2023-03-23T11:26:16;13.52;;;2.50;;
55784;SDS011;41709;52.536;5.688;2023-03-23T11:29:10;13.27;;;2.83;;
55784;SDS011;41709;52.536;5.688;2023-03-23T11:31:46;14.50;;;3.30;;
55784;SDS011;41709;52.536;5.688;2023-03-23T11:34:21;11.55;;;2.65;;
55784;SDS011;41709;52.536;5.688;2023-03-23T11:36:59;13.00;;;2.67;;
55784;SDS011;41709;52.536;5.688;2023-03-23T11:39:27;11.68;;;1.77;;
55784;SDS011;41709;52.536;5.688;2023-03-23T11:41:55;11.43;;;2.40;;
55784;SDS011;41709;52.536;5.688;2023-03-23T11:44:23;9.18;;;2.15;;
55784;SDS011;41709;52.536;5.688;2023-03-23T11:47:13;14.98;;;4.05;;
55784;SDS011;41709;52.536;5.688;2023-03-23T11:49:57;8.55;;;1.70;;
55784;SDS011;41709;52.536;5.688;2023-03-23T11:52:43;14.70;;;2.65;;
55784;SDS011;41709;52.536;5.688;2023-03-23T11:55:17;10.65;;;2.20;;
55784;SDS011;41709;52.536;5.688;2023-03-23T11:57:47;11.38;;;2.67;;
55784;SDS011;41709;52.536;5.688;2023-03-23T12:00:17;10.15;;;2.15;;
55784;SDS011;41709;52.536;5.688;2023-03-23T12:06:03;14.50;;;2.72;;
55784;SDS011;41709;52.536;5.688;2023-03-23T12:08:42;15.35;;;3.05;;
55784;SDS011;41709;52.536;5.688;2023-03-23T12:11:45;12.85;;;2.03;;
55784;SDS011;41709;52.536;5.688;2023-03-23T12:17:20;15.43;;;3.00;;
55784;SDS011;41709;52.536;5.688;2023-03-23T12:21:00;24.63;;;4.38;;
55784;SDS011;41709;52.536;5.688;2023-03-23T12:23:19;11.35;;;2.33;;
55784;SDS011;41709;52.536;5.688;2023-03-23T12:26:13;13.15;;;1.60;;
55784;SDS011;41709;52.536;5.688;2023-03-23T12:29:07;12.50;;;2.45;;
55784;SDS011;41709;52.536;5.688;2023-03-23T12:31:44;18.08;;;3.03;;
55784;SDS011;41709;52.536;5.688;2023-03-23T12:42:24;10.30;;;1.88;;
55784;SDS011;41709;52.536;5.688;2023-03-23T12:45:19;13.60;;;2.20;;
55784;SDS011;41709;52.536;5.688;2023-03-23T12:50:32;13.65;;;2.30;;
55784;SDS011;41709;52.536;5.688;2023-03-23T12:53:25;16.67;;;4.32;;
55784;SDS011;41709;52.536;5.688;2023-03-23T12:56:06;11.40;;;1.77;;
55784;SDS011;41709;52.536;5.688;2023-03-23T12:58:45;12.63;;;2.00;;
55784;SDS011;41709;52.536;5.688;2023-03-23T13:01:22;15.30;;;2.70;;
55784;SDS011;41709;52.536;5.688;2023-03-23T13:03:56;13.75;;;2.83;;
55784;SDS011;41709;52.536;5.688;2023-03-23T13:09:02;11.95;;;2.75;;
55784;SDS011;41709;52.536;5.688;2023-03-23T13:11:44;14.85;;;3.50;;
55784;SDS011;41709;52.536;5.688;2023-03-23T13:14:29;16.88;;;2.70;;
55784;SDS011;41709;52.536;5.688;2023-03-23T13:22:25;11.88;;;2.08;;
55784;SDS011;41709;52.536;5.688;2023-03-23T13:24:54;16.15;;;2.50;;
55784;SDS011;41709;52.536;5.688;2023-03-23T13:27:23;11.55;;;2.38;;
55784;SDS011;41709;52.536;5.688;2023-03-23T13:29:52;12.35;;;3.22;;
55784;SDS011;41709;52.536;5.688;2023-03-23T13:32:20;13.43;;;2.80;;
55784;SDS011;41709;52.536;5.688;2023-03-23T13:34:47;9.93;;;1.70;;
55784;SDS011;41709;52.536;5.688;2023-03-23T13:39:56;12.35;;;2.25;;
55784;SDS011;41709;52.536;5.688;2023-03-23T13:42:51;13.40;;;2.20;;
55784;SDS011;41709;52.536;5.688;2023-03-23T13:50:44;10.73;;;2.03;;
55784;SDS011;41709;52.536;5.688;2023-03-23T13:53:21;12.43;;;1.88;;
55784;SDS011;41709;52.536;5.688;2023-03-23T13:55:51;12.23;;;2.03;;
55784;SDS011;41709;52.536;5.688;2023-03-23T13:58:29;12.68;;;2.70;;
55784;SDS011;41709;52.536;5.688;2023-03-23T14:03:37;10.23;;;2.50;;
55784;SDS011;41709;52.536;5.688;2023-03-23T14:08:44;10.18;;;2.55;;
55784;SDS011;41709;52.536;5.688;2023-03-23T14:16:39;13.70;;;3.00;;
55784;SDS011;41709;52.536;5.688;2023-03-23T14:19:39;8.55;;;2.15;;
55784;SDS011;41709;52.536;5.688;2023-03-23T14:21:59;7.72;;;2.00;;
55784;SDS011;41709;52.536;5.688;2023-03-23T14:24:30;12.80;;;2.28;;
55784;SDS011;41709;52.536;5.688;2023-03-23T14:27:40;12.77;;;2.95;;
55784;SDS011;41709;52.536;5.688;2023-03-23T14:29:57;9.52;;;1.90;;
55784;SDS011;41709;52.536;5.688;2023-03-23T14:32:24;11.23;;;2.15;;
55784;SDS011;41709;52.536;5.688;2023-03-23T14:34:52;8.02;;;1.90;;
55784;SDS011;41709;52.536;5.688;2023-03-23T14:37:18;9.13;;;2.25;;
55784;SDS011;41709;52.536;5.688;2023-03-23T14:39:47;14.70;;;3.42;;
55784;SDS011;41709;52.536;5.688;2023-03-23T14:42:19;9.23;;;2.38;;
55784;SDS011;41709;52.536;5.688;2023-03-23T14:44:52;10.05;;;2.22;;
55784;SDS011;41709;52.536;5.688;2023-03-23T14:47:22;14.52;;;2.30;;
55784;SDS011;41709;52.536;5.688;2023-03-23T14:52:25;11.25;;;2.25;;
55784;SDS011;41709;52.536;5.688;2023-03-23T14:54:52;9.88;;;2.25;;
55784;SDS011;41709;52.536;5.688;2023-03-23T14:59:49;7.05;;;1.70;;
55784;SDS011;41709;52.536;5.688;2023-03-23T15:02:20;12.57;;;3.17;;
55784;SDS011;41709;52.536;5.688;2023-03-23T15:04:59;10.88;;;2.08;;
55784;SDS011;41709;52.536;5.688;2023-03-23T15:07:35;11.77;;;3.38;;
55784;SDS011;41709;52.536;5.688;2023-03-23T15:10:08;8.98;;;1.73;;
55784;SDS011;41709;52.536;5.688;2023-03-23T15:12:38;11.77;;;2.40;;
55784;SDS011;41709;52.536;5.688;2023-03-23T15:15:05;9.50;;;2.17;;
55784;SDS011;41709;52.536;5.688;2023-03-23T15:17:41;7.97;;;2.42;;
55784;SDS011;41709;52.536;5.688;2023-03-23T15:20:19;9.88;;;2.03;;
55784;SDS011;41709;52.536;5.688;2023-03-23T15:22:49;8.65;;;2.28;;
55784;SDS011;41709;52.536;5.688;2023-03-23T15:31:02;11.63;;;3.42;;
55784;SDS011;41709;52.536;5.688;2023-03-23T15:33:35;10.23;;;1.92;;
55784;SDS011;41709;52.536;5.688;2023-03-23T15:36:05;13.45;;;3.05;;
55784;SDS011;41709;52.536;5.688;2023-03-23T15:38:42;9.45;;;1.95;;
55784;SDS011;41709;52.536;5.688;2023-03-23T15:41:19;7.85;;;1.88;;
55784;SDS011;41709;52.536;5.688;2023-03-23T15:46:20;10.77;;;2.22;;
55784;SDS011;41709;52.536;5.688;2023-03-23T15:48:52;12.73;;;2.33;;
55784;SDS011;41709;52.536;5.688;2023-03-23T15:51:27;7.90;;;2.22;;
55784;SDS011;41709;52.536;5.688;2023-03-23T15:53:55;9.95;;;2.00;;
55784;SDS011;41709;52.536;5.688;2023-03-23T15:56:22;8.55;;;1.55;;
55784;SDS011;41709;52.536;5.688;2023-03-23T15:58:49;9.98;;;2.20;;
55784;SDS011;41709;52.536;5.688;2023-03-23T16:01:16;12.15;;;3.08;;
55784;SDS011;41709;52.536;5.688;2023-03-23T16:03:47;11.90;;;3.40;;
55784;SDS011;41709;52.536;5.688;2023-03-23T16:06:22;11.85;;;2.28;;
55784;SDS011;41709;52.536;5.688;2023-03-23T16:08:49;17.80;;;4.03;;
55784;SDS011;41709;52.536;5.688;2023-03-23T16:11:16;12.27;;;2.30;;
55784;SDS011;41709;52.536;5.688;2023-03-23T16:13:43;11.45;;;2.08;;
55784;SDS011;41709;52.536;5.688;2023-03-23T16:16:22;11.00;;;1.98;;
55784;SDS011;41709;52.536;5.688;2023-03-23T16:18:53;13.30;;;2.28;;
55784;SDS011;41709;52.536;5.688;2023-03-23T16:21:19;13.25;;;2.53;;
55784;SDS011;41709;52.536;5.688;2023-03-23T16:23:46;9.70;;;1.80;;
55784;SDS011;41709;52.536;5.688;2023-03-23T16:26:12;12.50;;;1.95;;
55784;SDS011;41709;52.536;5.688;2023-03-23T16:28:39;5.75;;;1.60;;
55784;SDS011;41709;52.536;5.688;2023-03-23T16:31:05;11.55;;;2.47;;
55784;SDS011;41709;52.536;5.688;2023-03-23T16:33:31;15.48;;;3.28;;